createdAt,value
2017-08-05T00:01:46.014Z,19.16
2017-08-05T00:04:14.341Z,19.14
2017-08-05T00:06:43.230Z,18.99
2017-08-05T00:09:11.636Z,18.93
2017-08-05T00:11:39.959Z,18.80
2017-08-05T00:14:08.712Z,18.86
2017-08-05T00:16:37.055Z,19.03
2017-08-05T00:19:06.178Z,18.83
2017-08-05T00:21:34.974Z,18.75
2017-08-05T00:24:03.320Z,18.54
2017-08-05T00:26:31.649Z,18.86
2017-08-05T00:29:00.516Z,18.55
2017-08-05T00:31:28.845Z,18.82
2017-08-05T00:33:57.182Z,18.77
2017-08-05T00:36:26.022Z,18.73
2017-08-05T00:38:54.358Z,18.85
2017-08-05T00:41:22.711Z,18.72
2017-08-05T00:43:51.447Z,18.59
2017-08-05T00:46:19.794Z,18.58
2017-08-05T00:48:48.117Z,18.84
2017-08-05T00:51:16.935Z,19.01
2017-08-05T00:53:45.278Z,18.83
2017-08-05T00:56:13.621Z,18.88
2017-08-05T00:58:42.582Z,18.74
2017-08-05T01:01:10.937Z,18.62
2017-08-05T01:03:40.039Z,18.66
2017-08-05T01:06:09.662Z,18.76
2017-08-05T01:08:38.007Z,18.42
2017-08-05T01:11:06.340Z,18.64
2017-08-05T01:13:35.311Z,18.57
2017-08-05T01:16:03.657Z,18.50
2017-08-05T01:18:32.014Z,18.31
2017-08-05T01:21:00.658Z,18.20
2017-08-05T01:23:29.012Z,18.46
2017-08-05T01:25:57.367Z,18.46
2017-08-05T01:28:26.028Z,18.53
2017-08-05T01:30:54.368Z,18.63
2017-08-05T01:33:22.743Z,18.58
2017-08-05T01:35:51.514Z,18.36
2017-08-05T01:38:19.861Z,18.44
2017-08-05T01:40:48.205Z,18.48
2017-08-05T01:43:16.945Z,18.33
2017-08-05T01:45:45.281Z,18.37
2017-08-05T01:48:13.627Z,18.46
2017-08-05T01:50:42.272Z,18.49
2017-08-05T01:53:10.620Z,18.58
2017-08-05T01:55:38.971Z,18.20
2017-08-05T01:58:07.653Z,18.45
2017-08-05T02:00:35.997Z,18.39
2017-08-05T02:03:04.341Z,18.41
2017-08-05T02:05:32.993Z,18.68
2017-08-05T02:08:01.357Z,18.55
2017-08-05T02:10:29.685Z,18.62
2017-08-05T02:12:58.319Z,18.67
2017-08-05T02:15:26.642Z,18.48
2017-08-05T02:17:55.255Z,18.45
2017-08-05T02:20:24.459Z,18.50
2017-08-05T02:22:52.809Z,18.48
2017-08-05T02:25:21.147Z,18.46
2017-08-05T02:27:49.976Z,18.42
2017-08-05T02:30:18.323Z,18.28
2017-08-05T02:32:46.668Z,18.32
2017-08-05T02:35:15.346Z,18.13
2017-08-05T02:37:43.686Z,18.12
2017-08-05T02:40:12.030Z,18.31
2017-08-05T02:42:40.822Z,18.48
2017-08-05T02:45:09.230Z,18.46
2017-08-05T02:47:38.325Z,18.19
2017-08-05T02:50:07.935Z,17.96
2017-08-05T02:52:36.276Z,18.07
2017-08-05T02:55:04.624Z,18.11
2017-08-05T02:57:33.245Z,18.08
2017-08-05T03:00:01.607Z,17.94
2017-08-05T03:02:29.942Z,18.11
2017-08-05T03:04:58.791Z,18.30
2017-08-05T03:07:27.151Z,18.01
2017-08-05T03:09:55.491Z,17.80
2017-08-05T03:12:24.273Z,17.87
2017-08-05T03:14:52.609Z,17.98
2017-08-05T03:17:20.957Z,17.89
2017-08-05T03:19:49.720Z,17.91
2017-08-05T03:22:18.069Z,17.78
2017-08-05T03:24:46.422Z,17.95
2017-08-05T03:27:15.117Z,17.97
2017-08-05T03:29:43.496Z,17.77
2017-08-05T03:32:11.830Z,17.67
2017-08-05T03:34:40.519Z,17.53
2017-08-05T03:37:08.853Z,17.67
2017-08-05T03:39:37.181Z,17.68
2017-08-05T03:42:05.811Z,17.67
2017-08-05T03:44:34.135Z,17.66
2017-08-05T03:47:02.479Z,17.88
2017-08-05T03:49:32.136Z,18.20
2017-08-05T03:52:00.486Z,17.75
2017-08-05T03:54:30.370Z,18.05
2017-08-05T03:56:59.203Z,17.96
2017-08-05T03:59:27.558Z,17.80
2017-08-05T04:01:55.900Z,17.95
2017-08-05T04:04:24.552Z,17.96
2017-08-05T04:06:52.901Z,17.73
2017-08-05T04:09:21.241Z,17.84
2017-08-05T04:11:50.295Z,18.07
2017-08-05T04:14:18.626Z,17.93
2017-08-05T04:16:46.949Z,17.99
2017-08-05T04:19:15.586Z,17.82
2017-08-05T04:21:43.931Z,17.73
2017-08-05T04:24:12.263Z,17.89
2017-08-05T04:26:41.182Z,17.99
2017-08-05T04:29:09.537Z,18.03
2017-08-05T04:31:38.672Z,18.26
2017-08-05T04:34:07.612Z,18.47
2017-08-05T04:36:35.951Z,18.35
2017-08-05T04:39:04.302Z,18.35
2017-08-05T04:41:32.923Z,18.13
2017-08-05T04:44:01.260Z,18.55
2017-08-05T04:46:30.367Z,18.74
2017-08-05T04:48:59.802Z,18.54
2017-08-05T04:51:28.136Z,18.34
2017-08-05T04:53:57.246Z,18.74
2017-08-05T04:56:27.294Z,18.97
2017-08-05T04:58:55.671Z,19.01
2017-08-05T05:01:24.012Z,18.97
2017-08-05T05:03:52.906Z,18.97
2017-08-05T05:06:21.241Z,19.09
2017-08-05T05:08:49.592Z,18.68
2017-08-05T05:11:18.239Z,19.01
2017-08-05T05:13:47.383Z,19.07
2017-08-05T05:16:15.718Z,19.17
2017-08-05T05:18:44.606Z,19.49
2017-08-05T05:21:12.950Z,19.00
2017-08-05T05:23:41.292Z,18.56
2017-08-05T05:26:09.948Z,19.12
2017-08-05T05:28:38.328Z,19.27
2017-08-05T05:31:06.677Z,19.60
2017-08-05T05:33:35.514Z,19.61
2017-08-05T05:36:03.870Z,19.56
2017-08-05T05:38:32.226Z,19.74
2017-08-05T05:41:01.690Z,19.44
2017-08-05T05:43:30.033Z,19.20
2017-08-05T05:45:58.372Z,19.20
2017-08-05T05:48:27.232Z,19.59
2017-08-05T05:50:55.586Z,19.55
2017-08-05T05:53:24.685Z,19.49
2017-08-05T05:55:54.318Z,19.58
2017-08-05T05:58:22.682Z,19.89
2017-08-05T06:00:51.050Z,20.17
2017-08-05T06:03:19.954Z,20.32
2017-08-05T06:05:48.295Z,20.31
2017-08-05T06:08:16.644Z,19.99
2017-08-05T06:10:45.381Z,20.11
2017-08-05T06:13:13.713Z,19.77
2017-08-05T06:15:42.045Z,19.86
2017-08-05T06:18:11.453Z,20.29
2017-08-05T06:20:39.794Z,20.70
2017-08-05T06:23:08.145Z,21.09
2017-08-05T06:25:37.108Z,20.95
2017-08-05T06:28:05.453Z,20.74
2017-08-05T06:30:33.814Z,21.01
2017-08-05T06:33:02.554Z,20.66
2017-08-05T06:35:30.907Z,21.39
2017-08-05T06:37:59.256Z,21.62
2017-08-05T06:40:28.007Z,21.73
2017-08-05T06:42:56.344Z,21.84
2017-08-05T06:45:24.689Z,21.76
2017-08-05T06:47:53.460Z,22.24
2017-08-05T06:50:21.956Z,22.23
2017-08-05T06:52:50.279Z,22.41
2017-08-05T06:55:19.115Z,21.78
2017-08-05T06:57:47.511Z,21.92
2017-08-05T07:00:15.872Z,22.07
2017-08-05T07:02:44.750Z,21.68
2017-08-05T07:05:13.109Z,21.92
2017-08-05T07:07:41.476Z,22.21
2017-08-05T07:10:10.270Z,22.39
2017-08-05T07:12:38.605Z,22.38
2017-08-05T07:15:06.972Z,22.20
2017-08-05T07:17:35.619Z,22.26
2017-08-05T07:20:04.032Z,22.31
2017-08-05T07:22:32.429Z,22.49
2017-08-05T07:25:01.184Z,22.69
2017-08-05T07:27:29.717Z,22.76
2017-08-05T07:29:58.146Z,22.79
2017-08-05T07:32:27.612Z,22.42
2017-08-05T07:34:55.980Z,22.87
2017-08-05T07:37:24.339Z,23.13
2017-08-05T07:39:53.002Z,23.38
2017-08-05T07:42:21.511Z,23.28
2017-08-05T07:44:49.903Z,23.44
2017-08-05T07:47:18.750Z,23.86
2017-08-05T07:49:47.207Z,23.77
2017-08-05T07:52:15.569Z,24.35
2017-08-05T07:54:44.567Z,24.73
2017-08-05T07:57:13.312Z,25.10
2017-08-05T07:59:42.118Z,24.00
2017-08-05T08:02:11.090Z,23.91
2017-08-05T08:04:39.491Z,24.36
2017-08-05T08:07:08.068Z,24.10
2017-08-05T08:09:37.067Z,24.39
2017-08-05T08:12:05.651Z,24.55
2017-08-05T08:14:34.151Z,24.44
2017-08-05T08:17:03.305Z,23.74
2017-08-05T08:19:31.803Z,23.78
2017-08-05T08:22:00.345Z,23.91
2017-08-05T08:24:30.076Z,23.40
2017-08-05T08:26:58.588Z,23.86
2017-08-05T08:29:27.043Z,23.19
2017-08-05T08:31:55.844Z,22.93
2017-08-05T08:34:24.249Z,23.32
2017-08-05T08:36:52.603Z,23.55
2017-08-05T08:39:21.375Z,23.83
2017-08-05T08:41:49.771Z,23.62
2017-08-05T08:44:18.205Z,23.64
2017-08-05T08:46:47.006Z,23.75
2017-08-05T08:49:15.391Z,22.93
2017-08-05T08:51:43.776Z,23.05
2017-08-05T08:54:12.507Z,23.31
2017-08-05T08:56:40.842Z,23.60
2017-08-05T08:59:09.439Z,23.81
2017-08-05T09:01:38.418Z,23.98
2017-08-05T09:04:06.770Z,24.08
2017-08-05T09:06:35.118Z,24.56
2017-08-05T09:09:03.761Z,24.58
2017-08-05T09:11:32.890Z,24.62
2017-08-05T09:14:01.254Z,24.37
2017-08-05T09:16:29.922Z,23.96
2017-08-05T09:18:58.260Z,24.34
2017-08-05T09:21:26.620Z,24.52
2017-08-05T09:23:55.332Z,24.97
2017-08-05T09:26:23.714Z,25.12
2017-08-05T09:28:52.089Z,24.10
2017-08-05T09:31:20.754Z,24.26
2017-08-05T09:33:49.098Z,23.90
2017-08-05T09:36:17.468Z,23.41
2017-08-05T09:38:46.100Z,23.33
2017-08-05T09:41:14.470Z,23.34
2017-08-05T09:43:42.826Z,23.74
2017-08-05T09:46:11.510Z,23.87
2017-08-05T09:48:39.855Z,23.36
2017-08-05T09:51:08.202Z,23.73
2017-08-05T09:53:36.851Z,23.70
2017-08-05T09:56:05.217Z,23.91
2017-08-05T09:58:33.630Z,23.56
2017-08-05T10:01:02.881Z,23.51
2017-08-05T10:03:32.075Z,23.57
2017-08-05T10:06:00.441Z,23.59
2017-08-05T10:08:29.470Z,23.97
2017-08-05T10:10:57.812Z,24.04
2017-08-05T10:13:26.194Z,23.72
2017-08-05T10:15:54.859Z,23.20
2017-08-05T10:18:23.214Z,23.84
2017-08-05T10:20:51.591Z,24.46
2017-08-05T10:23:20.296Z,23.71
2017-08-05T10:25:48.666Z,24.06
2017-08-05T10:28:17.025Z,23.13
2017-08-05T10:30:45.802Z,23.36
2017-08-05T10:33:14.171Z,23.70
2017-08-05T10:35:43.282Z,23.09
2017-08-05T10:38:11.900Z,22.72
2017-08-05T10:40:40.252Z,23.11
2017-08-05T10:43:08.604Z,23.30
2017-08-05T10:45:37.304Z,22.92
2017-08-05T10:48:05.674Z,23.04
2017-08-05T10:50:34.031Z,23.42
2017-08-05T10:53:02.828Z,23.35
2017-08-05T10:55:31.176Z,22.98
2017-08-05T10:57:59.548Z,23.20
2017-08-05T11:00:28.209Z,23.26
2017-08-05T11:02:56.592Z,23.55
2017-08-05T11:05:24.939Z,23.59
2017-08-05T11:07:53.689Z,23.50
2017-08-05T11:10:22.067Z,23.56
2017-08-05T11:12:50.416Z,23.90
2017-08-05T11:15:19.483Z,22.86
2017-08-05T11:17:47.823Z,23.14
2017-08-05T11:20:16.179Z,23.37
2017-08-05T11:22:44.958Z,23.44
2017-08-05T11:25:13.362Z,23.40
2017-08-05T11:27:41.721Z,23.55
2017-08-05T11:30:10.372Z,23.35
2017-08-05T11:32:38.754Z,23.06
2017-08-05T11:35:07.104Z,22.76
2017-08-05T11:37:36.071Z,23.21
2017-08-05T11:40:04.463Z,23.35
2017-08-05T11:42:32.826Z,23.65
2017-08-05T11:45:01.488Z,23.36
2017-08-05T11:47:29.896Z,23.77
2017-08-05T11:49:58.258Z,23.38
2017-08-05T11:52:26.992Z,23.45
2017-08-05T11:54:55.365Z,23.21
2017-08-05T11:57:23.725Z,22.74
2017-08-05T11:59:52.612Z,22.49
2017-08-05T12:02:20.959Z,22.42
2017-08-05T12:04:49.317Z,22.98
2017-08-05T12:07:17.993Z,22.80
2017-08-05T12:09:46.335Z,23.15
2017-08-05T12:12:14.693Z,22.95
2017-08-05T12:14:43.470Z,23.28
2017-08-05T12:17:11.827Z,22.50
2017-08-05T12:19:40.175Z,22.90
2017-08-05T12:22:09.006Z,23.08
2017-08-05T12:24:38.118Z,23.08
2017-08-05T12:27:07.349Z,23.15
2017-08-05T12:29:36.828Z,23.17
2017-08-05T12:32:05.171Z,22.67
2017-08-05T12:34:33.616Z,22.68
2017-08-05T12:37:02.489Z,22.57
2017-08-05T12:39:30.888Z,22.76
2017-08-05T12:41:59.241Z,22.48
2017-08-05T12:44:28.029Z,22.35
2017-08-05T12:46:56.402Z,22.41
2017-08-05T12:49:24.758Z,22.20
2017-08-05T12:51:54.418Z,22.03
2017-08-05T12:54:22.767Z,22.19
2017-08-05T12:56:51.106Z,22.23
2017-08-05T12:59:19.866Z,22.26
2017-08-05T13:01:48.209Z,22.78
2017-08-05T13:04:17.343Z,23.16
2017-08-05T13:06:46.306Z,23.39
2017-08-05T13:09:14.674Z,23.47
2017-08-05T13:11:43.773Z,23.49
2017-08-05T13:14:12.553Z,23.66
2017-08-05T13:16:40.894Z,23.70
2017-08-05T13:19:09.221Z,23.18
2017-08-05T13:21:38.632Z,23.43
2017-08-05T13:24:06.983Z,23.73
2017-08-05T13:26:35.340Z,23.60
2017-08-05T13:29:04.085Z,23.59
2017-08-05T13:31:32.431Z,23.62
2017-08-05T13:34:01.530Z,23.91
2017-08-05T13:36:31.182Z,24.76
2017-08-05T13:38:59.540Z,24.97
2017-08-05T13:41:27.889Z,25.33
2017-08-05T13:43:56.803Z,24.61
2017-08-05T13:46:25.148Z,24.27
2017-08-05T13:48:53.508Z,25.15
2017-08-05T13:51:23.083Z,25.31
2017-08-05T13:53:51.448Z,25.49
2017-08-05T13:56:19.795Z,26.24
2017-08-05T13:58:48.415Z,25.86
2017-08-05T14:01:16.745Z,26.00
2017-08-05T14:03:45.103Z,26.21
2017-08-05T14:06:14.170Z,25.89
2017-08-05T14:08:42.521Z,25.71
2017-08-05T14:11:10.882Z,26.05
2017-08-05T14:13:39.629Z,26.43
2017-08-05T14:16:07.981Z,26.79
2017-08-05T14:18:37.096Z,27.18
2017-08-05T14:21:05.779Z,26.37
2017-08-05T14:23:34.138Z,24.97
2017-08-05T14:26:02.483Z,24.70
2017-08-05T14:28:31.202Z,24.96
2017-08-05T14:31:00.327Z,25.11
2017-08-05T14:33:28.712Z,25.19
2017-08-05T14:35:57.797Z,24.26
2017-08-05T14:38:26.159Z,24.63
2017-08-05T14:40:55.270Z,25.48
2017-08-05T14:43:23.902Z,26.02
2017-08-05T14:45:52.275Z,25.71
2017-08-05T14:48:20.620Z,25.65
2017-08-05T14:50:49.399Z,25.70
2017-08-05T14:53:17.748Z,25.69
2017-08-05T14:55:46.132Z,25.64
2017-08-05T14:58:15.129Z,26.06
2017-08-05T15:00:43.502Z,25.97
2017-08-05T15:03:12.636Z,26.41
2017-08-05T15:05:41.426Z,26.73
2017-08-05T15:08:09.766Z,26.15
2017-08-05T15:10:38.903Z,25.91
2017-08-05T15:13:07.694Z,26.12
2017-08-05T15:15:36.026Z,25.79
2017-08-05T15:18:04.391Z,25.90
2017-08-05T15:20:33.168Z,26.12
2017-08-05T15:23:01.541Z,25.65
2017-08-05T15:25:29.880Z,25.29
2017-08-05T15:27:58.606Z,25.05
2017-08-05T15:30:26.952Z,24.98
2017-08-05T15:32:55.294Z,24.95
2017-08-05T15:35:24.238Z,24.83
2017-08-05T15:37:52.571Z,24.86
2017-08-05T15:40:20.946Z,24.69
2017-08-05T15:42:49.781Z,24.78
2017-08-05T15:45:18.157Z,24.89
2017-08-05T15:47:46.496Z,24.87
2017-08-05T15:50:15.335Z,24.87
2017-08-05T15:52:43.713Z,24.41
2017-08-05T15:55:12.073Z,24.25
2017-08-05T15:57:40.728Z,23.77
2017-08-05T16:00:09.114Z,23.27
2017-08-05T16:02:37.458Z,23.26
2017-08-05T16:05:06.558Z,23.04
2017-08-05T16:07:34.906Z,22.78
2017-08-05T16:10:03.264Z,22.54
2017-08-05T16:12:31.915Z,22.27
2017-08-05T16:15:00.288Z,22.23
2017-08-05T16:17:28.685Z,22.23
2017-08-05T16:19:57.508Z,22.46
2017-08-05T16:22:25.854Z,22.64
2017-08-05T16:24:54.216Z,22.40
2017-08-05T16:27:23.156Z,22.59
2017-08-05T16:29:51.556Z,22.38
2017-08-05T16:32:19.948Z,22.03
2017-08-05T16:34:48.628Z,22.14
2017-08-05T16:37:17.007Z,22.33
2017-08-05T16:39:45.384Z,22.48
2017-08-05T16:42:14.049Z,22.59
2017-08-05T16:44:42.432Z,22.62
2017-08-05T16:47:10.801Z,22.71
2017-08-05T16:49:39.688Z,22.83
2017-08-05T16:52:08.058Z,22.86
2017-08-05T16:54:37.200Z,22.78
2017-08-05T16:57:06.116Z,22.95
2017-08-05T16:59:34.473Z,23.00
2017-08-05T17:02:02.821Z,22.99
2017-08-05T17:04:32.020Z,22.89
2017-08-05T17:07:00.380Z,22.84
2017-08-05T17:09:28.742Z,22.46
2017-08-05T17:11:57.531Z,22.41
2017-08-05T17:14:25.903Z,22.49
2017-08-05T17:16:54.239Z,22.23
2017-08-05T17:19:22.881Z,22.35
2017-08-05T17:21:51.280Z,22.22
2017-08-05T17:24:19.666Z,22.37
2017-08-05T17:26:48.567Z,22.44
2017-08-05T17:29:16.918Z,22.58
2017-08-05T17:31:45.285Z,22.41
2017-08-05T17:34:14.342Z,21.98
2017-08-05T17:36:42.730Z,21.88
2017-08-05T17:39:11.088Z,21.99
2017-08-05T17:41:39.860Z,22.06
2017-08-05T17:44:08.229Z,22.01
2017-08-05T17:46:37.351Z,22.04
2017-08-05T17:49:06.356Z,22.07
2017-08-05T17:51:34.742Z,22.34
2017-08-05T17:54:04.015Z,22.36
2017-08-05T17:56:33.209Z,22.19
2017-08-05T17:59:01.618Z,21.77
2017-08-05T18:01:30.008Z,21.75
2017-08-05T18:03:58.733Z,21.72
2017-08-05T18:06:28.058Z,21.78
2017-08-05T18:08:56.434Z,22.00
2017-08-05T18:11:25.252Z,21.78
2017-08-05T18:13:53.616Z,21.73
2017-08-05T18:16:21.972Z,21.88
2017-08-05T18:18:50.641Z,21.80
2017-08-05T18:21:19.098Z,21.62
2017-08-05T18:23:47.435Z,21.55
2017-08-05T18:26:16.077Z,21.30
2017-08-05T18:28:44.440Z,21.48
2017-08-05T18:31:12.784Z,21.45
2017-08-05T18:33:41.681Z,21.55
2017-08-05T18:36:10.034Z,21.41
2017-08-05T18:38:39.167Z,21.37
2017-08-05T18:41:08.143Z,21.46
2017-08-05T18:43:36.521Z,21.41
2017-08-05T18:46:04.913Z,21.36
2017-08-05T18:48:33.864Z,21.39
2017-08-05T18:51:03.203Z,21.42
2017-08-05T18:53:32.414Z,21.29
2017-08-05T18:56:01.901Z,21.27
2017-08-05T18:58:30.271Z,21.33
2017-08-05T19:00:58.622Z,21.32
2017-08-05T19:03:27.445Z,21.15
2017-08-05T19:05:55.807Z,21.14
2017-08-05T19:08:24.167Z,21.10
2017-08-05T19:10:53.615Z,21.07
2017-08-05T19:13:21.954Z,20.82
2017-08-05T19:15:50.356Z,20.64
2017-08-05T19:18:19.053Z,20.60
2017-08-05T19:20:47.472Z,20.51
2017-08-05T19:23:15.868Z,20.67
2017-08-05T19:25:44.905Z,20.83
2017-08-05T19:28:13.267Z,20.92
2017-08-05T19:30:42.388Z,20.85
2017-08-05T19:33:11.127Z,20.76
2017-08-05T19:35:39.502Z,20.69
2017-08-05T19:38:07.855Z,20.66
2017-08-05T19:40:36.631Z,20.67
2017-08-05T19:43:05.000Z,20.64
2017-08-05T19:45:33.377Z,20.60
2017-08-05T19:48:02.748Z,20.67
2017-08-05T19:50:31.184Z,20.85
2017-08-05T19:52:59.559Z,20.83
2017-08-05T19:55:28.235Z,20.88
2017-08-05T19:57:56.595Z,20.90
2017-08-05T20:00:24.946Z,20.90
2017-08-05T20:02:53.628Z,20.58
2017-08-05T20:05:21.989Z,20.58
2017-08-05T20:07:50.343Z,20.55
2017-08-05T20:10:19.436Z,20.60
2017-08-05T20:12:47.789Z,20.66
2017-08-05T20:15:16.144Z,20.57
2017-08-05T20:17:45.067Z,20.47
2017-08-05T20:20:13.426Z,20.43
2017-08-05T20:22:41.788Z,20.41
2017-08-05T20:25:10.633Z,20.44
2017-08-05T20:27:38.994Z,20.42
2017-08-05T20:30:07.376Z,20.29
2017-08-05T20:32:36.247Z,20.17
2017-08-05T20:35:05.356Z,20.29
2017-08-05T20:37:33.711Z,20.30
2017-08-05T20:40:02.371Z,20.11
2017-08-05T20:42:30.739Z,20.04
2017-08-05T20:44:59.099Z,20.09
2017-08-05T20:47:27.890Z,20.23
2017-08-05T20:49:56.249Z,20.25
2017-08-05T20:52:24.597Z,20.01
2017-08-05T20:54:53.318Z,20.03
2017-08-05T20:57:21.683Z,20.10
2017-08-05T20:59:50.817Z,20.02
2017-08-05T21:02:19.467Z,20.16
2017-08-05T21:04:48.592Z,20.19
2017-08-05T21:07:16.951Z,20.24
2017-08-05T21:09:45.839Z,20.14
2017-08-05T21:12:14.224Z,20.26
2017-08-05T21:14:42.585Z,19.97
2017-08-05T21:17:11.309Z,20.10
2017-08-05T21:19:39.688Z,20.13
2017-08-05T21:22:08.037Z,20.10
2017-08-05T21:24:36.823Z,19.99
2017-08-05T21:27:05.968Z,20.00
2017-08-05T21:29:34.343Z,19.94
2017-08-05T21:32:03.092Z,20.02
2017-08-05T21:34:32.232Z,19.94
2017-08-05T21:37:00.587Z,19.89
2017-08-05T21:39:29.291Z,19.88
2017-08-05T21:41:57.648Z,19.83
2017-08-05T21:44:26.015Z,19.85
2017-08-05T21:46:54.919Z,19.67
2017-08-05T21:49:23.299Z,19.87
2017-08-05T21:51:51.645Z,19.79
2017-08-05T21:54:20.296Z,19.52
2017-08-05T21:56:48.670Z,19.59
2017-08-05T21:59:17.071Z,19.53
2017-08-05T22:01:45.807Z,19.47
2017-08-05T22:04:14.278Z,19.52
2017-08-05T22:06:42.664Z,19.36
2017-08-05T22:09:11.451Z,19.22
2017-08-05T22:11:39.810Z,19.18
2017-08-05T22:14:08.191Z,19.14
2017-08-05T22:16:37.138Z,19.06
2017-08-05T22:19:05.503Z,19.11
2017-08-05T22:21:33.862Z,19.01
2017-08-05T22:24:02.692Z,18.79
2017-08-05T22:26:31.069Z,18.92
2017-08-05T22:28:59.443Z,18.85
2017-08-05T22:31:28.336Z,18.87
2017-08-05T22:33:56.749Z,18.93
2017-08-05T22:36:25.119Z,19.01
2017-08-05T22:38:53.768Z,18.99
2017-08-05T22:41:22.123Z,18.99
2017-08-05T22:43:50.493Z,18.92
2017-08-05T22:46:20.150Z,18.94
2017-08-05T22:48:48.530Z,18.94
2017-08-05T22:51:16.958Z,18.70
2017-08-05T22:53:46.346Z,18.77
2017-08-05T22:56:14.685Z,18.86
2017-08-05T22:58:43.061Z,18.79
2017-08-05T23:01:11.820Z,18.76
2017-08-05T23:03:40.203Z,18.84
2017-08-05T23:06:08.565Z,18.57
2017-08-05T23:08:37.422Z,18.57
2017-08-05T23:11:05.786Z,18.71
2017-08-05T23:13:34.164Z,18.65
2017-08-05T23:16:02.801Z,18.62
2017-08-05T23:18:31.949Z,18.63
2017-08-05T23:21:00.319Z,18.61
2017-08-05T23:23:29.026Z,18.46
2017-08-05T23:25:57.373Z,18.33
2017-08-05T23:28:25.745Z,18.36
2017-08-05T23:30:54.898Z,18.49
2017-08-05T23:33:23.262Z,18.40
2017-08-05T23:35:51.616Z,18.26
2017-08-05T23:38:20.291Z,18.13
2017-08-05T23:40:48.666Z,18.19
2017-08-05T23:43:17.017Z,18.11
2017-08-05T23:45:45.950Z,18.10
2017-08-05T23:48:14.324Z,17.78
2017-08-05T23:50:42.685Z,17.95
2017-08-05T23:53:11.586Z,18.00
2017-08-05T23:55:39.948Z,17.72
2017-08-05T23:58:08.318Z,17.65
